AGROMETEOROLOŠKI PORTAL

vinorodna pokrajina

Temelj dobrega kmetovanja

Pregled podatkov za lokacijo Blanca, meteorološka postaja 859097

Pregled senzorjev na lokaciji

ID Ime Zadnja
vrednost
Datum in čas
meritve
(lokalni čas)
Tip
senzorja
6682 Zračni tlak (hPa) 985 hPa 4.7.2022 04:00 BP1 500 - 1500 hPa
6675 Padavine (mm) 0 mm 4.7.2022 04:00 Generic 0.2 mm
6673 Relativna zračna vlaga (2 m) (%RH) 93 %RH 4.7.2022 04:00 50YA
6672 Temperatura (2 m) (°C) 17,5 °C 4.7.2022 04:00 50YA

Pregled podatkov zadnjih 24 ur

Zap.
št.
Datum in čas
(lokalni čas)
Blanca
Zračni
tlak
Padavine Relativna
zračna
vlaga
(2
m)
Temperatura
(2
m)
1 4.7.2022 04:00 985,3 0 93,2 17,5
2 4.7.2022 03:30 985,6 0 90,3 18,1
3 4.7.2022 03:00 985,9 0 90,2 18,3
4 4.7.2022 02:30 986 0 92,5 17,8
5 4.7.2022 02:00 985,9 0 89 18,3
6 4.7.2022 01:30 986 0 86,6 18,9
7 4.7.2022 01:00 986,1 0 81,6 19,9
8 4.7.2022 00:30 986,1 0 81,5 20
9 4.7.2022 00:00 986,1 0 80 20,3
10 3.7.2022 23:30 986 0 77,8 21
11 3.7.2022 23:00 986 0 74,6 21,8
12 3.7.2022 22:30 985,9 0 69,6 22,8
13 3.7.2022 22:00 985,7 0 64,9 23,8
14 3.7.2022 21:30 985,3 0 60,4 24,8
15 3.7.2022 21:00 984,9 0 53,6 26,6
16 3.7.2022 20:30 984,7 0 48 28,2
17 3.7.2022 20:00 984,8 0 42,8 29,5
18 3.7.2022 19:30 984,8 0 40,8 30,3
19 3.7.2022 19:00 984,8 0 42 31
20 3.7.2022 18:30 984,9 0 40,9 31,3
21 3.7.2022 18:00 985,1 0 40,7 31,6
22 3.7.2022 17:30 985,2 0 39,7 32
23 3.7.2022 17:00 985,2 0 39 32,3
24 3.7.2022 16:30 985,3 0 39,3 32,5
25 3.7.2022 16:00 985,6 0 40,7 32,2
26 3.7.2022 15:30 985,7 0 41,8 32
27 3.7.2022 15:00 985,9 0 43,1 31,1
28 3.7.2022 14:30 986 0 42,7 30,8
29 3.7.2022 14:00 986,3 0 42,5 30,8
30 3.7.2022 13:30 986,4 0 43,1 29,9
31 3.7.2022 13:00 986,7 0 44 29,5
32 3.7.2022 12:30 987 0 44,5 28,5
33 3.7.2022 12:00 987,2 0 45,8 28,1
34 3.7.2022 11:30 987,4 0 45,2 27,5
35 3.7.2022 11:00 987,6 0 45 27,1
36 3.7.2022 10:30 987,6 0 48,4 25,9
37 3.7.2022 10:00 987,5 0 50,4 25,3
38 3.7.2022 09:30 987,6 0 58,7 23,8
39 3.7.2022 09:00 987,8 0 65,5 22,5
40 3.7.2022 08:30 987,9 0 75 20,3
41 3.7.2022 08:00 987,8 0 79,2 19,2
42 3.7.2022 07:30 987,8 0 84,8 17,9
43 3.7.2022 07:00 987,8 0 91,3 16,8
44 3.7.2022 06:30 987,7 0 97,1 15,5
45 3.7.2022 06:00 987,5 0 98,1 15,2
46 3.7.2022 05:30 987,6 0 97,4 15,1